createdAt,value
2016-04-29T00:00:18.970Z,3.72
2016-04-29T00:01:18.677Z,3.67
2016-04-29T00:02:18.633Z,3.89
2016-04-29T00:03:18.603Z,3.8
2016-04-29T00:04:18.575Z,3.76
2016-04-29T00:05:18.594Z,3.67
2016-04-29T00:06:18.533Z,3.82
2016-04-29T00:07:18.489Z,3.83
2016-04-29T00:08:18.460Z,3.75
2016-04-29T00:09:18.432Z,3.82
2016-04-29T00:10:18.419Z,3.75
2016-04-29T00:11:18.375Z,3.86
2016-04-29T00:12:18.378Z,3.76
2016-04-29T00:13:18.317Z,3.78
2016-04-29T00:14:18.288Z,3.8
2016-04-29T00:15:19.519Z,3.82
2016-04-29T00:16:18.342Z,3.79
2016-04-29T00:17:18.322Z,3.79
2016-04-29T00:18:18.349Z,3.75
2016-04-29T00:19:18.351Z,3.79
2016-04-29T00:20:18.322Z,3.78
2016-04-29T00:21:18.322Z,3.79
2016-04-29T00:22:18.293Z,3.8
2016-04-29T00:23:18.278Z,3.82
2016-04-29T00:24:18.261Z,3.8
2016-04-29T00:25:18.237Z,3.8
2016-04-29T00:26:18.213Z,3.79
2016-04-29T00:27:18.221Z,3.86
2016-04-29T00:28:18.166Z,3.65
2016-04-29T00:29:18.141Z,3.8
2016-04-29T00:30:17.803Z,3.79
2016-04-29T00:31:18.088Z,3.86
2016-04-29T00:32:18.046Z,3.82
2016-04-29T00:33:18.034Z,3.79
2016-04-29T00:34:17.992Z,3.79
2016-04-29T00:35:17.964Z,3.79
2016-04-29T00:36:17.953Z,3.82
2016-04-29T00:37:17.909Z,3.8
2016-04-29T00:38:17.880Z,3.82
2016-04-29T00:39:17.869Z,3.9
2016-04-29T00:40:17.826Z,3.76
2016-04-29T00:41:17.797Z,3.76
2016-04-29T00:42:17.768Z,3.82
2016-04-29T00:43:17.740Z,3.79
2016-04-29T18:19:17.797Z,8.3
2016-04-29T18:20:18.081Z,8.2
2016-04-29T18:21:18.038Z,8.28
2016-04-29T18:22:18.025Z,8.22
2016-04-29T18:23:17.997Z,8.17
2016-04-29T18:24:17.968Z,8.26
2016-04-29T18:25:17.940Z,8.22
2016-04-29T22:35:22.903Z,8.02
2016-04-29T22:35:40.199Z,8.07
2016-04-29T22:36:40.811Z,8.02
2016-04-29T22:37:40.158Z,8.02
2016-04-29T22:38:39.036Z,8.04
2016-04-29T22:39:40.648Z,8.03
2016-04-29T22:40:38.557Z,7.96
2016-04-29T22:41:37.357Z,8.11
2016-04-29T22:42:39.078Z,8
2016-04-29T22:43:38.595Z,8.03
2016-04-29T22:44:38.223Z,8.14
2016-04-29T22:45:41.100Z,8.1
2016-04-29T22:46:41.197Z,8.04
2016-04-29T22:47:41.029Z,8.07
2016-04-29T22:48:41.063Z,8.03
2016-04-29T22:49:40.783Z,8.07
2016-04-29T22:50:40.021Z,8.14
2016-04-29T22:51:40.867Z,8.02
2016-04-29T22:52:40.494Z,8.17
2016-04-29T22:53:40.013Z,8.03
2016-04-29T22:54:40.455Z,8.04
2016-04-29T22:55:40.613Z,8.07
2016-04-29T22:56:40.255Z,8.04
2016-04-29T22:57:40.259Z,8.1
2016-04-29T22:58:37.418Z,8.1
2016-04-29T22:59:38.608Z,8.12
2016-04-29T23:00:38.142Z,8.11
2016-04-29T23:01:38.113Z,8.07
2016-04-29T23:02:39.725Z,8.11
2016-04-29T23:03:42.274Z,8.04
2016-04-29T23:04:37.981Z,8.1
2016-04-29T23:05:37.937Z,8.04
2016-04-29T23:06:39.377Z,8.02
2016-04-29T23:07:36.504Z,8
2016-04-29T23:08:36.647Z,8.11
2016-04-29T23:09:36.604Z,8.07
2016-04-29T23:10:36.576Z,8.11
2016-04-29T23:11:36.546Z,8
2016-04-29T23:12:36.518Z,7.99
2016-04-29T23:13:36.349Z,8.03
2016-04-29T23:14:36.320Z,7.97
2016-04-29T23:15:36.464Z,8.04
2016-04-29T23:16:36.420Z,8.1
2016-04-29T23:17:36.391Z,8.11
2016-04-29T23:18:36.237Z,8.12
2016-04-29T23:19:36.349Z,8.1
2016-04-29T23:20:36.320Z,8.08
2016-04-29T23:21:36.292Z,8.08
2016-04-29T23:22:36.263Z,8.03
2016-04-29T23:23:36.236Z,8.08
2016-04-29T23:24:36.206Z,8.15
2016-04-29T23:25:36.177Z,8.17
2016-04-29T23:26:36.008Z,8.14
2016-04-29T23:27:36.152Z,8.15
2016-04-29T23:28:36.108Z,8.15
2016-04-29T23:29:36.080Z,8.14
2016-04-29T23:30:36.066Z,8.21
2016-04-29T23:31:36.038Z,8.22
2016-04-29T23:32:35.869Z,8.2
2016-04-29T23:33:37.652Z,8.2
2016-04-29T23:34:35.968Z,8.2
2016-04-29T23:35:35.924Z,8.17
2016-04-29T23:36:35.738Z,8.2
2016-04-29T23:37:35.882Z,8.2
2016-04-29T23:38:35.697Z,8.2
2016-04-29T23:39:35.825Z,8.29
2016-04-29T23:40:35.796Z,8.22
2016-04-29T23:41:35.767Z,8.21
2016-04-29T23:42:35.739Z,8.26
2016-04-29T23:43:35.711Z,8.28
2016-04-29T23:44:35.682Z,8.28
2016-04-29T23:45:35.528Z,8.17
2016-04-29T23:46:35.484Z,8.22
2016-04-29T23:47:35.612Z,8.2
2016-04-29T23:48:35.584Z,8.22
2016-04-29T23:49:35.556Z,8.17
2016-04-29T23:50:35.542Z,8.17
2016-04-29T23:51:35.498Z,8.18
2016-04-29T23:52:35.485Z,8.15
2016-04-29T23:53:35.441Z,8.07
2016-04-29T23:54:35.444Z,8.11
2016-04-29T23:55:35.243Z,8.12
2016-04-29T23:56:35.386Z,8.04
2016-04-29T23:57:35.201Z,7.99
2016-04-29T23:58:35.329Z,7.92
2016-04-29T23:59:35.300Z,7.92
